FBSK/GBE METAR and TAF weather

Enter ICAO airport designator
Station Type Date Time Source
FBSK METAR 2020/11/25 22:00 UTC NOAA

FBSK 252200Z 07004KT CAVOK 22/17 Q1016 NOSIG


Station Type Date Time Source
FBSK Decoded METAR 2020/11/25 22:00 UTC NOAA

Seretse Khama International Airport, Botswana (FBSK) 24-13S 025-55E 1005M
Nov 25, 2020 - 05:00 PM EST / 2020.11.25 2200 UTC
Wind: from the ENE (070 degrees) at 5 MPH (4 KT):0
Visibility: greater than 7 mile(s):0
Temperature: 71 F (22 C)
Dew Point: 62 F (17 C)
Relative Humidity: 73%
Pressure (altimeter): 30.00 in. Hg (1016 hPa)
ob: FBSK 252200Z 07004KT CAVOK 22/17 Q1016 NOSIG
cycle: 22

Station Type Date Time Source
FBSK TAF 2020/11/25 18:09 UTC NOAA

TAF TAF FBSK 251600Z 2518/2624 28004KT CAVOK
BECMG 2604/2506 04014KT BKN014
BECMG 2610/2612 SCT025 FEW035CB

Example: see airport list